Time;durP1;ratioP1;P1;durP2;ratioP2;P2;SDS_P1;SDS_P2;PMS_P1;PMS_P2;Temp;Humidity;BMP_temperature;BMP_pressure;BME280_temperature;BME280_humidity;BME280_pressure;Samples;Min_cycle;Max_cycle;Signal;HPM_P1;HPM_P2
2022/01/08 00:00:40;;;;;;;4.53;1.40;;;8.20;73.50;;;;;;2476821;54;21391;-84
2022/01/08 00:03:07;;;;;;;4.82;1.50;;;8.20;73.60;;;;;;2495885;55;21259;-84
2022/01/08 00:05:33;;;;;;;5.15;1.70;;;8.20;73.40;;;;;;2496138;54;20916;-84
2022/01/08 00:08:00;;;;;;;3.97;1.40;;;8.20;73.40;;;;;;2267511;55;20988;-83
2022/01/08 00:10:26;;;;;;;7.32;1.80;;;8.30;73.20;;;;;;2469610;55;21031;-84
2022/01/08 00:12:52;;;;;;;3.50;1.20;;;8.30;73.40;;;;;;2267600;55;20860;-85
2022/01/08 00:15:18;;;;;;;3.65;1.17;;;8.30;73.30;;;;;;2267288;55;20999;-82
2022/01/08 00:17:45;;;;;;;4.80;1.10;;;8.30;73.30;;;;;;2495178;55;20911;-83
2022/01/08 00:20:12;;;;;;;6.57;1.70;;;8.30;73.10;;;;;;2495443;55;20959;-85
2022/01/08 00:22:38;;;;;;;5.32;1.67;;;8.30;74.00;;;;;;2267637;55;20943;-81
2022/01/08 00:25:06;;;;;;;4.87;1.27;;;8.40;72.50;;;;;;2270141;55;21016;-85
2022/01/08 00:27:33;;;;;;;4.10;1.33;;;8.40;72.40;;;;;;2267683;55;20991;-85
2022/01/08 00:29:59;;;;;;;3.75;1.15;;;8.50;72.20;;;;;;2268596;55;20951;-84
2022/01/08 00:32:26;;;;;;;4.22;1.23;;;8.30;72.00;;;;;;2495697;55;20971;-84
2022/01/08 00:34:52;;;;;;;3.75;1.12;;;8.30;71.70;;;;;;2269044;55;20960;-84
2022/01/08 00:37:19;;;;;;;2.45;1.17;;;8.30;71.80;;;;;;2266941;55;20943;-84
2022/01/08 00:39:47;;;;;;;4.00;1.37;;;8.20;71.40;;;;;;2496851;55;20987;-85
2022/01/08 00:42:14;;;;;;;4.05;1.23;;;8.20;71.40;;;;;;2267412;55;20995;-86
2022/01/08 00:44:42;;;;;;;3.60;1.05;;;8.10;72.10;;;;;;2496392;54;20957;-85
2022/01/08 00:47:08;;;;;;;3.90;1.35;;;8.10;71.70;;;;;;2495256;55;21003;-82
2022/01/08 00:49:36;;;;;;;4.10;1.30;;;8.10;71.90;;;;;;2267617;55;21837;-85
2022/01/08 00:52:03;;;;;;;6.47;1.20;;;8.00;71.70;;;;;;2495905;55;21051;-83
2022/01/08 00:54:29;;;;;;;4.00;1.25;;;8.00;71.80;;;;;;2491977;54;21072;-82
2022/01/08 00:56:57;;;;;;;5.53;1.40;;;7.90;71.70;;;;;;2494376;54;21012;-82
2022/01/08 00:59:23;;;;;;;6.93;1.20;;;7.90;71.10;;;;;;2494786;55;20975;-82
2022/01/08 01:01:49;;;;;;;4.35;1.25;;;7.90;70.80;;;;;;2495124;55;20935;-82
2022/01/08 01:04:16;;;;;;;4.78;1.40;;;7.80;71.20;;;;;;2494590;54;20995;-82
2022/01/08 01:06:43;;;;;;;3.25;1.10;;;7.80;71.20;;;;;;2264881;55;21011;-81
2022/01/08 01:09:10;;;;;;;5.37;1.25;;;7.70;71.80;;;;;;2492640;55;20964;-81
2022/01/08 01:11:37;;;;;;;5.60;1.42;;;7.70;71.30;;;;;;2493512;54;21033;-81
2022/01/08 01:14:03;;;;;;;5.15;1.35;;;7.70;71.50;;;;;;2259332;55;20955;-83
2022/01/08 01:16:30;;;;;;;4.35;1.25;;;7.60;71.40;;;;;;2253849;55;21285;-83
2022/01/08 01:18:58;;;;;;;5.22;1.12;;;7.60;71.50;;;;;;2266621;55;21553;-81
2022/01/08 01:21:25;;;;;;;5.05;1.40;;;7.60;71.90;;;;;;2493497;55;20971;-83
2022/01/08 01:23:52;;;;;;;4.60;1.40;;;7.50;71.60;;;;;;2492778;55;21469;-79
2022/01/08 01:26:23;;;;;;;2.78;1.15;;;7.50;71.70;;;;;;2490822;55;20911;-81
2022/01/08 01:28:57;;;;;;;6.30;1.30;;;7.50;71.30;;;;;;2491105;55;20979;-79
2022/01/08 01:43:07;;;;;;;3.37;1.10;;;7.10;70.90;;;;;;2489479;54;21910;-79
2022/01/08 01:48:20;;;;;;;4.40;1.20;;;6.90;71.20;;;;;;2489849;55;20962;-78
2022/01/08 01:50:47;;;;;;;3.78;1.27;;;6.80;71.30;;;;;;2263641;55;21003;-78
2022/01/08 01:53:14;;;;;;;4.28;1.27;;;6.80;71.40;;;;;;2490099;55;21111;-79
2022/01/08 01:55:41;;;;;;;3.35;1.20;;;6.80;71.50;;;;;;2267668;55;20940;-79
2022/01/08 01:58:09;;;;;;;3.90;1.10;;;6.70;71.70;;;;;;2239181;56;21055;-79
2022/01/08 02:00:36;;;;;;;3.62;1.20;;;6.60;71.60;;;;;;2489773;55;20975;-79
2022/01/08 02:03:02;;;;;;;2.90;1.35;;;6.60;71.80;;;;;;2490035;55;21134;-78
2022/01/08 02:05:29;;;;;;;2.25;0.95;;;6.50;71.80;;;;;;2488820;55;21011;-78
2022/01/08 02:07:55;;;;;;;3.35;1.17;;;6.50;72.00;;;;;;2490305;55;20964;-79
2022/01/08 02:10:22;;;;;;;2.05;0.95;;;6.50;72.10;;;;;;2489541;54;20982;-79
2022/01/08 02:12:49;;;;;;;2.60;0.93;;;6.50;72.20;;;;;;2490118;55;21015;-78
2022/01/08 02:15:15;;;;;;;2.30;1.00;;;6.40;72.20;;;;;;2260840;55;20984;-80
2022/01/08 02:17:41;;;;;;;5.07;1.30;;;6.40;72.50;;;;;;2490274;54;21984;-81
2022/01/08 02:20:08;;;;;;;4.68;1.35;;;6.40;72.60;;;;;;2260881;55;21474;-78
2022/01/08 02:22:35;;;;;;;4.25;1.60;;;6.40;72.90;;;;;;2489699;55;21805;-80
2022/01/08 02:25:02;;;;;;;5.80;1.30;;;6.30;72.90;;;;;;2489751;55;21015;-78
2022/01/08 02:27:28;;;;;;;3.42;1.25;;;6.40;73.30;;;;;;2264741;55;21032;-77
2022/01/08 02:29:55;;;;;;;3.20;1.55;;;6.40;73.60;;;;;;2260821;55;20958;-79
2022/01/08 02:32:28;;;;;;;4.30;1.33;;;6.30;73.50;;;;;;2261116;56;20994;-80
2022/01/08 02:34:56;;;;;;;2.70;0.90;;;6.30;73.50;;;;;;2261015;56;20935;-80
2022/01/08 02:37:26;;;;;;;4.28;1.30;;;6.40;73.70;;;;;;2381987;54;2294532;-80
2022/01/08 02:39:52;;;;;;;2.50;0.98;;;6.40;73.80;;;;;;2491383;54;21008;-77
2022/01/08 02:42:19;;;;;;;3.28;1.20;;;6.40;73.90;;;;;;2254627;55;20947;-79
2022/01/08 02:44:46;;;;;;;2.35;0.90;;;6.40;74.00;;;;;;2264740;55;20963;-78
2022/01/08 02:47:15;;;;;;;3.45;1.20;;;6.40;73.90;;;;;;2488752;54;21006;-78
2022/01/08 02:49:42;;;;;;;3.53;0.95;;;6.50;73.90;;;;;;2242886;56;21866;-79
2022/01/08 02:52:10;;;;;;;3.72;1.55;;;6.40;73.70;;;;;;2261416;55;20939;-79
2022/01/08 02:54:37;;;;;;;2.83;1.08;;;6.50;73.80;;;;;;2489603;55;21047;-78
2022/01/08 02:57:03;;;;;;;2.00;0.85;;;6.50;73.90;;;;;;2489716;55;20935;-80
2022/01/08 02:59:30;;;;;;;3.22;1.00;;;6.50;74.00;;;;;;2489794;55;21845;-78
2022/01/08 03:01:56;;;;;;;2.47;0.90;;;6.50;74.10;;;;;;2490114;55;21006;-79
2022/01/08 03:04:22;;;;;;;2.90;1.02;;;6.50;74.00;;;;;;2265199;55;21403;-80
2022/01/08 03:06:48;;;;;;;2.28;0.90;;;6.50;74.10;;;;;;2482821;54;20930;-80
2022/01/08 03:09:15;;;;;;;4.62;1.35;;;6.50;74.10;;;;;;2489670;55;20968;-79
2022/01/08 03:11:43;;;;;;;3.30;1.02;;;6.60;74.10;;;;;;2261267;56;20951;-79
2022/01/08 03:14:09;;;;;;;2.50;1.00;;;6.60;74.10;;;;;;2261172;56;20936;-78
2022/01/08 03:16:35;;;;;;;4.43;1.25;;;6.60;73.80;;;;;;2260264;55;20956;-78
2022/01/08 03:19:10;;;;;;;3.87;1.15;;;6.60;73.70;;;;;;2261724;55;20956;-78
2022/01/08 03:21:42;;;;;;;2.62;1.00;;;6.60;73.70;;;;;;2263573;55;21000;-78
2022/01/08 03:24:10;;;;;;;3.60;1.10;;;6.60;73.80;;;;;;2261159;55;20974;-78
2022/01/08 03:26:37;;;;;;;1.75;0.70;;;6.60;73.80;;;;;;2489186;54;20993;-80
2022/01/08 03:29:03;;;;;;;2.70;1.17;;;6.60;73.70;;;;;;2261116;56;20962;-78
2022/01/08 03:31:29;;;;;;;1.92;0.80;;;6.50;73.60;;;;;;2489538;55;20983;-80
2022/01/08 03:33:56;;;;;;;2.17;0.70;;;6.60;73.70;;;;;;2490475;55;20968;-79
2022/01/08 03:36:23;;;;;;;1.80;0.80;;;6.50;73.60;;;;;;2264721;55;20952;-80
2022/01/08 03:38:50;;;;;;;3.90;0.70;;;6.50;73.60;;;;;;2475560;54;21052;-78
2022/01/08 03:41:16;;;;;;;3.97;1.10;;;6.60;73.90;;;;;;2257655;55;20999;-78
2022/01/08 03:43:42;;;;;;;3.97;0.77;;;6.60;74.50;;;;;;2474841;54;21008;-79
2022/01/08 03:46:10;;;;;;;5.60;0.93;;;6.60;73.90;;;;;;2264564;55;22195;-78
2022/01/08 03:48:46;;;;;;;2.35;0.70;;;6.60;74.10;;;;;;2260610;55;20995;-77
2022/01/08 03:51:12;;;;;;;2.65;0.80;;;6.60;73.90;;;;;;2267479;55;21017;-80
2022/01/08 03:53:39;;;;;;;2.28;0.70;;;6.60;73.50;;;;;;2476271;54;21764;-78
2022/01/08 03:56:05;;;;;;;2.22;0.70;;;6.60;73.80;;;;;;2262287;55;21124;-80
2022/01/08 03:58:31;;;;;;;1.75;0.70;;;6.60;73.80;;;;;;2260977;55;21485;-79
2022/01/08 04:00:58;;;;;;;1.77;0.73;;;6.60;73.80;;;;;;2490128;55;20956;-79
2022/01/08 04:03:24;;;;;;;2.28;0.80;;;6.70;74.10;;;;;;2490137;55;21019;-79
2022/01/08 04:05:51;;;;;;;2.67;1.20;;;6.70;74.00;;;;;;2259689;55;21019;-78
2022/01/08 04:08:17;;;;;;;1.83;0.80;;;6.70;74.00;;;;;;2489835;55;20959;-79
2022/01/08 04:10:44;;;;;;;1.70;0.80;;;6.70;74.00;;;;;;2266169;55;20975;-79
2022/01/08 04:13:18;;;;;;;1.60;0.60;;;6.70;74.00;;;;;;2257018;55;20975;-78
2022/01/08 04:15:46;;;;;;;1.60;0.60;;;6.70;74.00;;;;;;2487372;54;21963;-78
2022/01/08 04:18:13;;;;;;;2.03;0.60;;;6.70;73.90;;;;;;2244903;55;20908;-80
2022/01/08 04:23:24;;;;;;;1.92;0.60;;;6.80;74.00;;;;;;2259000;55;20975;-79
2022/01/08 04:25:51;;;;;;;1.42;0.50;;;6.80;73.90;;;;;;2475997;54;21015;-78
2022/01/08 04:28:17;;;;;;;3.03;0.62;;;6.80;74.00;;;;;;2260876;55;20955;-78
2022/01/08 04:30:43;;;;;;;1.37;0.55;;;6.80;74.00;;;;;;2491453;54;20953;-80
2022/01/08 04:33:10;;;;;;;1.37;0.47;;;6.80;73.90;;;;;;2257027;55;21460;-80
2022/01/08 04:35:36;;;;;;;1.40;0.52;;;6.80;73.90;;;;;;2251247;55;20995;-80
2022/01/08 04:38:02;;;;;;;0.85;0.37;;;6.80;74.00;;;;;;2491502;54;20956;-78
2022/01/08 04:40:29;;;;;;;3.30;0.75;;;6.80;74.10;;;;;;2263008;55;20969;-79
2022/01/08 04:42:55;;;;;;;0.95;0.45;;;6.80;74.10;;;;;;2488401;54;21525;-81
2022/01/08 04:45:24;;;;;;;1.33;0.50;;;6.90;74.20;;;;;;2261040;56;20951;-78
2022/01/08 04:47:50;;;;;;;0.80;0.30;;;6.90;74.00;;;;;;2489759;55;21000;-78
2022/01/08 04:50:16;;;;;;;0.57;0.30;;;6.90;74.00;;;;;;2490317;54;20965;-78
2022/01/08 04:52:43;;;;;;;0.55;0.30;;;6.90;73.90;;;;;;2261305;55;20977;-77
2022/01/08 04:55:09;;;;;;;0.37;0.20;;;6.90;73.80;;;;;;2264465;55;20992;-80
2022/01/08 04:57:36;;;;;;;0.20;0.20;;;7.00;74.50;;;;;;2261219;56;20951;-79
2022/01/08 05:00:04;;;;;;;0.43;0.20;;;7.00;73.80;;;;;;2262083;56;20959;-80
2022/01/08 05:02:30;;;;;;;0.68;0.30;;;7.00;73.50;;;;;;2489677;54;20976;-79
2022/01/08 05:04:57;;;;;;;0.90;0.37;;;7.00;73.50;;;;;;2261590;55;20959;-80
2022/01/08 05:07:23;;;;;;;0.80;0.28;;;7.00;73.50;;;;;;2488747;55;20970;-80
2022/01/08 05:09:49;;;;;;;0.73;0.30;;;7.00;73.40;;;;;;2261943;56;21003;-79
2022/01/08 05:12:16;;;;;;;0.20;0.20;;;7.00;73.10;;;;;;2262319;55;20998;-79
2022/01/08 05:14:44;;;;;;;0.40;0.20;;;6.90;72.90;;;;;;2488975;54;20937;-80
2022/01/08 05:17:13;;;;;;;1.02;0.30;;;6.90;72.90;;;;;;2260949;55;21874;-79
2022/01/08 05:19:47;;;;;;;0.47;0.25;;;6.90;72.90;;;;;;2491759;55;21006;-78
2022/01/08 05:22:23;;;;;;;0.65;0.30;;;6.90;72.90;;;;;;2266267;55;20962;-78
2022/01/08 05:24:49;;;;;;;0.62;0.20;;;6.90;72.80;;;;;;2261270;55;20938;-80
2022/01/08 05:27:17;;;;;;;0.25;0.20;;;6.90;72.70;;;;;;2265239;55;22029;-79
2022/01/08 05:29:44;;;;;;;0.20;0.20;;;6.90;72.70;;;;;;2489268;54;21363;-78
2022/01/08 05:32:16;;;;;;;0.25;0.20;;;6.90;72.60;;;;;;2265325;55;21004;-80
2022/01/08 05:34:47;;;;;;;1.02;0.30;;;6.90;72.60;;;;;;2489354;55;21432;-78
2022/01/08 05:37:13;;;;;;;0.85;0.40;;;6.90;72.40;;;;;;2260308;55;20939;-78
2022/01/08 05:39:39;;;;;;;0.80;0.37;;;6.90;72.50;;;;;;2264912;55;21004;-78
2022/01/08 05:42:06;;;;;;;1.35;0.47;;;6.90;72.40;;;;;;2265458;55;20980;-81
2022/01/08 05:44:32;;;;;;;1.62;0.30;;;6.90;72.40;;;;;;2479992;54;21042;-78
2022/01/08 05:46:58;;;;;;;1.17;0.43;;;6.90;72.40;;;;;;2259477;55;20943;-80
2022/01/08 05:49:25;;;;;;;0.73;0.37;;;6.90;72.30;;;;;;2264310;55;21037;-80
2022/01/08 05:51:51;;;;;;;1.02;0.43;;;6.90;72.40;;;;;;2261787;55;21023;-79
2022/01/08 05:54:18;;;;;;;0.85;0.40;;;6.90;72.40;;;;;;2490314;54;20972;-81
2022/01/08 05:56:44;;;;;;;1.12;0.40;;;6.90;72.30;;;;;;2489853;55;20999;-79
2022/01/08 05:59:11;;;;;;;1.17;0.37;;;6.80;72.30;;;;;;2261887;56;21027;-79
2022/01/08 06:01:37;;;;;;;1.10;0.40;;;6.80;72.40;;;;;;2261472;56;21031;-80
2022/01/08 06:04:04;;;;;;;0.60;0.40;;;6.90;72.40;;;;;;2266335;55;21944;-79
2022/01/08 06:06:30;;;;;;;0.43;0.32;;;6.90;72.40;;;;;;2490151;54;21812;-79
2022/01/08 06:08:56;;;;;;;1.83;0.50;;;6.80;72.20;;;;;;2260015;55;21783;-78
2022/01/08 06:11:23;;;;;;;0.98;0.40;;;6.80;72.20;;;;;;2261071;55;20932;-80
2022/01/08 06:13:49;;;;;;;1.15;0.40;;;6.80;72.20;;;;;;2489779;54;20936;-81
2022/01/08 06:16:16;;;;;;;1.35;0.57;;;6.80;72.20;;;;;;2490459;54;21427;-78
2022/01/08 06:18:42;;;;;;;1.23;0.60;;;6.90;72.30;;;;;;2261680;55;20932;-79
2022/01/08 06:21:08;;;;;;;2.30;0.70;;;6.90;72.30;;;;;;2490854;55;20932;-77
2022/01/08 06:23:35;;;;;;;1.83;0.55;;;6.80;72.10;;;;;;2264639;55;20932;-80
2022/01/08 06:26:01;;;;;;;1.60;0.80;;;6.80;72.20;;;;;;2489590;54;20935;-80
2022/01/08 06:28:27;;;;;;;1.67;0.60;;;6.90;72.30;;;;;;2262226;55;20943;-83
2022/01/08 06:30:54;;;;;;;1.05;0.50;;;6.80;72.20;;;;;;2261958;56;20951;-80
2022/01/08 06:33:20;;;;;;;5.57;1.62;;;6.90;72.40;;;;;;2261891;55;20951;-80
2022/01/08 06:35:48;;;;;;;4.25;1.70;;;6.80;72.30;;;;;;2490044;55;20955;-79
2022/01/08 06:38:15;;;;;;;4.00;1.65;;;6.80;72.30;;;;;;2489989;54;20948;-79
2022/01/08 06:40:43;;;;;;;3.87;1.80;;;6.90;72.50;;;;;;2490131;55;20995;-80
2022/01/08 06:43:09;;;;;;;4.12;2.17;;;6.90;72.60;;;;;;2264958;55;20932;-81
2022/01/08 06:45:35;;;;;;;3.85;1.90;;;6.90;72.50;;;;;;2262593;55;21028;-79
2022/01/08 06:48:02;;;;;;;5.12;2.40;;;6.90;72.60;;;;;;2261259;55;21091;-79
2022/01/08 06:50:29;;;;;;;4.87;1.90;;;6.90;72.50;;;;;;2264707;55;21027;-81
2022/01/08 06:52:55;;;;;;;3.35;1.42;;;6.90;72.40;;;;;;2257414;55;21043;-81
2022/01/08 06:55:22;;;;;;;2.65;1.05;;;6.90;72.40;;;;;;2249838;55;20943;-80
2022/01/08 06:57:48;;;;;;;3.78;0.80;;;6.90;72.30;;;;;;2263204;55;20927;-79
2022/01/08 07:00:14;;;;;;;4.05;1.15;;;6.90;72.20;;;;;;2485451;54;21024;-80
2022/01/08 07:02:40;;;;;;;2.70;1.10;;;6.90;72.20;;;;;;2485215;54;21810;-80
2022/01/08 07:05:08;;;;;;;2.45;1.10;;;6.90;72.20;;;;;;2488630;54;20933;-82
2022/01/08 07:07:34;;;;;;;3.75;1.05;;;6.80;71.90;;;;;;2487984;54;21894;-80
2022/01/08 07:10:00;;;;;;;2.83;1.20;;;6.80;72.00;;;;;;2265397;55;20975;-79
2022/01/08 07:12:26;;;;;;;2.60;1.00;;;6.80;72.00;;;;;;2260204;55;22054;-79
2022/01/08 07:14:53;;;;;;;2.85;1.27;;;6.80;71.90;;;;;;2482646;54;21010;-79
2022/01/08 07:17:19;;;;;;;3.50;1.30;;;6.80;71.90;;;;;;2469202;54;21947;-78
2022/01/08 07:19:46;;;;;;;4.72;1.30;;;6.80;71.80;;;;;;2257647;55;21046;-80
2022/01/08 07:22:12;;;;;;;3.30;1.42;;;6.80;71.60;;;;;;2256400;55;20956;-80
2022/01/08 07:24:39;;;;;;;2.72;1.20;;;6.80;71.60;;;;;;2489222;55;20983;-79
2022/01/08 07:27:05;;;;;;;4.25;1.15;;;6.70;71.30;;;;;;2489776;54;20940;-81
2022/01/08 07:29:32;;;;;;;2.40;1.10;;;6.70;71.40;;;;;;2488089;54;20947;-80
2022/01/08 07:31:58;;;;;;;2.75;1.00;;;6.70;71.30;;;;;;2260677;56;21777;-81
2022/01/08 07:34:25;;;;;;;1.85;0.70;;;6.70;71.30;;;;;;2488860;55;20933;-81
2022/01/08 07:36:51;;;;;;;4.00;0.80;;;6.60;71.10;;;;;;2259908;55;20978;-79
2022/01/08 07:39:18;;;;;;;2.42;0.80;;;6.60;71.20;;;;;;2489156;55;20951;-79
2022/01/08 07:41:44;;;;;;;3.65;0.90;;;6.60;71.20;;;;;;2487354;54;20925;-82
2022/01/08 07:44:11;;;;;;;5.28;1.60;;;6.60;71.20;;;;;;2466690;54;20967;-81
2022/01/08 07:46:37;;;;;;;26.15;10.25;;;6.60;71.20;;;;;;2260202;56;20975;-79
2022/01/08 07:49:04;;;;;;;17.62;6.62;;;6.60;71.20;;;;;;2489846;55;21843;-82
2022/01/08 07:51:30;;;;;;;9.40;4.35;;;6.50;71.30;;;;;;2263894;55;20945;-82
2022/01/08 07:53:56;;;;;;;7.07;3.10;;;6.50;71.40;;;;;;2491277;54;20987;-81
2022/01/08 07:56:22;;;;;;;6.60;2.40;;;6.50;71.40;;;;;;2490832;55;20966;-82
2022/01/08 07:58:49;;;;;;;5.00;1.75;;;6.50;71.20;;;;;;2490750;55;21474;-80
2022/01/08 08:01:16;;;;;;;3.67;1.55;;;6.50;71.10;;;;;;2489975;54;21047;-79
2022/01/08 08:03:43;;;;;;;2.58;1.25;;;6.50;71.00;;;;;;2488587;54;20999;-80
2022/01/08 08:06:10;;;;;;;2.92;1.00;;;6.40;70.90;;;;;;2262005;55;21038;-82
2022/01/08 08:08:38;;;;;;;4.22;1.10;;;6.40;70.70;;;;;;2478760;54;22042;-81
2022/01/08 08:11:05;;;;;;;3.15;1.23;;;6.40;70.60;;;;;;2257483;55;21075;-78
2022/01/08 08:13:34;;;;;;;2.75;1.15;;;6.30;70.80;;;;;;2487607;54;20972;-80
2022/01/08 08:16:02;;;;;;;4.03;1.30;;;6.30;70.40;;;;;;2449716;54;20984;-80
2022/01/08 08:18:30;;;;;;;3.78;1.30;;;6.30;71.10;;;;;;2486306;54;21059;-79
2022/01/08 08:20:56;;;;;;;4.07;1.95;;;6.20;70.30;;;;;;2486977;55;21109;-79
2022/01/08 08:23:22;;;;;;;4.45;1.85;;;6.20;70.40;;;;;;2488122;54;21554;-80
2022/01/08 08:25:51;;;;;;;2.60;1.27;;;6.10;70.50;;;;;;2470838;54;21347;-82
2022/01/08 08:28:17;;;;;;;3.00;1.10;;;6.10;70.70;;;;;;2486530;54;20944;-80
2022/01/08 08:30:43;;;;;;;2.60;1.10;;;6.10;71.00;;;;;;2252696;55;20986;-80
2022/01/08 08:33:10;;;;;;;2.17;1.08;;;6.10;71.40;;;;;;2466410;54;20959;-82
2022/01/08 08:35:36;;;;;;;2.85;1.20;;;6.10;71.30;;;;;;2487254;54;20996;-79
2022/01/08 08:38:03;;;;;;;2.25;1.17;;;6.10;71.40;;;;;;2488731;54;20936;-78
2022/01/08 08:40:29;;;;;;;4.65;1.25;;;6.00;71.40;;;;;;2259111;56;22064;-79
2022/01/08 08:42:59;;;;;;;3.40;1.12;;;6.00;71.40;;;;;;2487393;54;20972;-82
2022/01/08 08:45:25;;;;;;;4.68;1.30;;;6.00;71.30;;;;;;2488261;54;20955;-81
2022/01/08 08:47:55;;;;;;;3.35;1.35;;;6.00;71.40;;;;;;2486609;54;20975;-82
2022/01/08 08:50:23;;;;;;;4.85;1.33;;;6.00;71.60;;;;;;2469945;54;21522;-82
2022/01/08 08:52:51;;;;;;;3.22;1.33;;;6.00;71.70;;;;;;2487349;54;20959;-82
2022/01/08 08:55:19;;;;;;;3.40;1.30;;;6.00;72.00;;;;;;2487602;54;20929;-78
2022/01/08 08:57:47;;;;;;;3.90;1.40;;;6.00;72.10;;;;;;2256509;55;21012;-82
2022/01/08 09:00:13;;;;;;;2.58;1.20;;;6.10;72.30;;;;;;2475631;54;20955;-79
2022/01/08 09:02:40;;;;;;;3.22;1.30;;;6.10;72.40;;;;;;2262116;55;21237;-79
2022/01/08 09:05:07;;;;;;;3.62;1.35;;;6.10;72.50;;;;;;2475547;54;20992;-82
2022/01/08 09:07:37;;;;;;;4.62;1.60;;;6.10;72.70;;;;;;2474029;54;21121;-82
2022/01/08 09:10:05;;;;;;;3.15;1.30;;;6.10;72.80;;;;;;2254809;55;21011;-78
2022/01/08 09:12:31;;;;;;;4.65;1.70;;;6.20;73.00;;;;;;2486103;54;21420;-80
2022/01/08 09:14:59;;;;;;;7.90;3.05;;;6.20;73.00;;;;;;2258696;55;21892;-83
2022/01/08 09:17:26;;;;;;;9.90;4.00;;;6.30;73.30;;;;;;2261146;55;20967;-79
2022/01/08 09:19:54;;;;;;;10.20;4.35;;;6.30;73.30;;;;;;2487045;54;20933;-79
2022/01/08 09:22:21;;;;;;;7.80;3.60;;;6.30;73.10;;;;;;2475058;54;20945;-79
2022/01/08 09:24:48;;;;;;;6.95;3.42;;;6.40;73.40;;;;;;2243000;55;20954;-83
2022/01/08 09:27:17;;;;;;;6.65;2.70;;;6.40;73.30;;;;;;2488331;55;20960;-83
2022/01/08 09:29:44;;;;;;;5.70;2.70;;;6.40;73.30;;;;;;2462468;55;21000;-80
2022/01/08 09:32:11;;;;;;;6.55;2.53;;;6.50;73.40;;;;;;2487072;54;20953;-81
2022/01/08 09:34:40;;;;;;;7.37;2.62;;;6.50;73.30;;;;;;2469128;54;20935;-81
2022/01/08 09:37:07;;;;;;;7.18;3.08;;;6.60;73.40;;;;;;2486301;54;20951;-83
2022/01/08 09:39:33;;;;;;;5.57;2.80;;;6.60;73.40;;;;;;2488949;54;20947;-79
2022/01/08 09:42:01;;;;;;;5.57;2.65;;;6.60;73.30;;;;;;2478353;54;20955;-81
2022/01/08 09:44:29;;;;;;;4.75;2.12;;;6.70;73.30;;;;;;2482618;54;20944;-80
2022/01/08 09:46:56;;;;;;;4.00;2.03;;;6.70;73.10;;;;;;2485147;54;21242;-80
2022/01/08 09:49:22;;;;;;;3.95;1.50;;;6.70;73.10;;;;;;2486954;54;21035;-80
2022/01/08 09:51:49;;;;;;;5.65;2.25;;;6.80;73.00;;;;;;2481419;54;20974;-77
2022/01/08 09:54:16;;;;;;;4.05;1.73;;;6.80;73.10;;;;;;2481218;54;20984;-79
2022/01/08 09:56:42;;;;;;;4.00;1.95;;;6.80;73.00;;;;;;2484248;54;20988;-77
2022/01/08 09:59:14;;;;;;;3.50;1.62;;;6.80;73.00;;;;;;2473258;54;21738;-80
2022/01/08 10:01:43;;;;;;;4.00;1.60;;;6.80;72.90;;;;;;2483287;54;20974;-83
2022/01/08 10:04:09;;;;;;;3.55;1.70;;;6.90;73.20;;;;;;2467992;54;20946;-80
2022/01/08 10:06:39;;;;;;;4.70;1.30;;;6.90;73.00;;;;;;2482366;54;21727;-78
2022/01/08 10:09:06;;;;;;;4.43;1.55;;;6.90;72.90;;;;;;2264764;55;21004;-82
2022/01/08 10:11:33;;;;;;;4.55;1.60;;;7.00;72.90;;;;;;2476722;54;21123;-81
2022/01/08 10:14:06;;;;;;;5.12;1.55;;;7.00;72.90;;;;;;2488138;54;21044;-82
2022/01/08 10:19:18;;;;;;;4.97;2.33;;;7.00;72.90;;;;;;2468742;54;21457;-79
2022/01/08 10:21:47;;;;;;;6.43;2.97;;;7.10;72.90;;;;;;2485875;55;20955;-81
2022/01/08 10:24:18;;;;;;;5.70;3.20;;;7.10;73.00;;;;;;2486062;54;20985;-81
2022/01/08 10:26:45;;;;;;;4.62;2.00;;;7.10;72.90;;;;;;2241363;55;20947;-80
2022/01/08 10:29:13;;;;;;;4.68;2.28;;;7.10;73.10;;;;;;2486392;54;20944;-79
2022/01/08 10:31:41;;;;;;;4.43;1.87;;;7.20;73.10;;;;;;2260171;56;20947;-82
2022/01/08 10:34:29;;;;;;;4.18;2.05;;;7.20;73.10;;;;;;2489084;55;20991;-81
2022/01/08 10:37:03;;;;;;;3.80;1.90;;;7.20;72.50;;;;;;2484618;55;20975;-83
2022/01/08 10:39:33;;;;;;;4.93;1.70;;;7.30;73.10;;;;;;2487780;54;21519;-80
2022/01/08 10:42:24;;;;;;;3.55;1.55;;;7.30;73.00;;;;;;2264562;55;20946;-83
2022/01/08 10:44:50;;;;;;;3.42;1.40;;;7.40;72.30;;;;;;2267794;55;21024;-84
2022/01/08 10:47:21;;;;;;;3.75;1.35;;;7.40;72.90;;;;;;2490518;54;20962;-81
2022/01/08 10:49:56;;;;;;;3.12;1.48;;;7.40;72.90;;;;;;2490557;54;20929;-81
2022/01/08 10:52:22;;;;;;;3.37;1.30;;;7.40;72.90;;;;;;2489935;54;21024;-83
2022/01/08 10:54:56;;;;;;;3.70;1.65;;;7.50;73.00;;;;;;2489639;54;21358;-82
2022/01/08 10:57:39;;;;;;;5.28;1.77;;;7.50;72.60;;;;;;2489426;55;20936;-83
2022/01/08 11:00:11;;;;;;;3.65;1.80;;;7.50;72.30;;;;;;2491629;54;21090;-82
2022/01/08 11:02:41;;;;;;;3.83;1.40;;;7.50;72.70;;;;;;2491061;54;21445;-82
2022/01/08 11:05:08;;;;;;;4.50;1.12;;;7.50;72.80;;;;;;2262868;55;20971;-83
2022/01/08 11:07:35;;;;;;;3.17;1.40;;;7.60;73.10;;;;;;2490768;55;21381;-83
2022/01/08 11:10:07;;;;;;;3.45;1.60;;;7.60;73.20;;;;;;2490620;55;20962;-80
2022/01/08 11:12:41;;;;;;;4.78;1.67;;;7.60;73.20;;;;;;2490432;55;20932;-83
2022/01/08 11:17:56;;;;;;;3.22;1.60;;;7.70;72.80;;;;;;2491574;55;21011;-82
2022/01/08 11:20:36;;;;;;;4.05;1.70;;;7.70;72.40;;;;;;2263450;55;20962;-83
2022/01/08 11:23:03;;;;;;;5.53;2.20;;;7.70;72.50;;;;;;2490552;55;21035;-81
2022/01/08 11:25:32;;;;;;;5.53;1.75;;;7.70;72.70;;;;;;2267101;55;20965;-82
2022/01/08 11:28:15;;;;;;;4.28;1.60;;;7.80;72.50;;;;;;2464881;55;20936;-83
2022/01/08 11:30:49;;;;;;;4.00;1.40;;;7.80;71.50;;;;;;2487036;54;22211;-83
2022/01/08 11:33:24;;;;;;;4.07;1.42;;;7.80;72.00;;;;;;2489628;55;20940;-83
2022/01/08 11:35:51;;;;;;;3.87;1.30;;;7.80;72.40;;;;;;2489737;54;21005;-83
2022/01/08 11:38:20;;;;;;;2.62;1.20;;;7.80;72.40;;;;;;2490623;55;20939;-81
2022/01/08 11:40:48;;;;;;;3.03;1.27;;;7.80;72.60;;;;;;2488127;54;21937;-82
2022/01/08 11:43:16;;;;;;;2.62;1.15;;;7.80;72.60;;;;;;2466122;54;20943;-81
2022/01/08 11:45:52;;;;;;;3.03;1.37;;;7.90;73.10;;;;;;2487956;54;21132;-79
2022/01/08 11:48:20;;;;;;;4.10;1.50;;;7.90;73.00;;;;;;2489530;54;21908;-82
2022/01/08 11:51:06;;;;;;;6.55;1.30;;;7.90;72.90;;;;;;2489606;55;21003;-81
2022/01/08 11:53:33;;;;;;;2.72;1.40;;;7.90;72.40;;;;;;2463959;55;20995;-82
2022/01/08 11:56:14;;;;;;;4.20;1.45;;;8.00;73.50;;;;;;2489417;55;20908;-80
2022/01/08 11:58:41;;;;;;;4.03;1.60;;;8.00;73.60;;;;;;2489883;55;20944;-82
2022/01/08 12:01:14;;;;;;;4.03;1.35;;;8.10;74.10;;;;;;2487660;54;21000;-80
2022/01/08 12:03:48;;;;;;;3.87;1.60;;;8.20;74.10;;;;;;2487144;54;20953;-81
2022/01/08 12:07:24;;;;;;;4.55;1.60;;;8.30;74.70;;;;;;2260861;55;21015;-83
2022/01/08 12:16:39;;;;;;;4.57;2.00;;;8.40;73.10;;;;;;2490665;55;21051;-82
2022/01/08 12:19:07;;;;;;;4.30;1.95;;;8.50;72.50;;;;;;2491366;55;20955;-80
2022/01/08 12:21:38;;;;;;;3.55;1.40;;;8.50;72.30;;;;;;2491001;55;20967;-82
2022/01/08 12:27:38;;;;;;;4.68;1.67;;;8.60;72.20;;;;;;2491057;55;20939;-81
2022/01/08 12:33:40;;;;;;;3.70;1.35;;;8.50;71.70;;;;;;2262646;55;20965;-82
2022/01/08 12:36:32;;;;;;;4.68;1.42;;;8.60;71.60;;;;;;2489274;54;21461;-81
2022/01/08 12:39:05;;;;;;;4.03;1.10;;;8.60;72.00;;;;;;2491216;55;21011;-83
2022/01/08 12:41:32;;;;;;;3.92;1.20;;;8.60;72.00;;;;;;2267172;55;21443;-83
2022/01/08 12:44:26;;;;;;;2.83;1.05;;;8.60;72.00;;;;;;2491161;55;20955;-84
2022/01/08 12:46:52;;;;;;;3.42;1.00;;;8.60;71.30;;;;;;2490509;55;20960;-83
2022/01/08 12:49:18;;;;;;;2.72;1.20;;;8.60;71.60;;;;;;2263631;56;21992;-81
2022/01/08 12:52:05;;;;;;;2.50;0.93;;;8.60;71.60;;;;;;2264227;55;21871;-83
2022/01/08 12:54:31;;;;;;;2.42;0.82;;;8.60;71.00;;;;;;2267512;55;20916;-83
2022/01/08 12:57:00;;;;;;;3.10;1.15;;;8.60;72.00;;;;;;2491437;54;21120;-81
2022/01/08 12:59:30;;;;;;;3.75;1.08;;;8.60;71.90;;;;;;2490707;54;20995;-83
2022/01/08 13:01:57;;;;;;;1.95;0.80;;;8.60;71.80;;;;;;2492562;55;20928;-84
2022/01/08 13:04:24;;;;;;;2.75;0.98;;;8.60;71.40;;;;;;2272243;55;21837;-83
2022/01/08 13:06:51;;;;;;;7.43;2.17;;;8.60;70.50;;;;;;2476624;54;20951;-84
2022/01/08 13:09:18;;;;;;;5.00;1.95;;;8.60;70.90;;;;;;2482511;54;21797;-81
2022/01/08 13:11:45;;;;;;;4.60;1.20;;;8.60;70.80;;;;;;2466088;54;21042;-79
2022/01/08 13:14:15;;;;;;;3.70;1.20;;;8.60;70.40;;;;;;2489955;55;20960;-82
2022/01/08 13:16:46;;;;;;;3.40;1.12;;;8.50;70.30;;;;;;2489231;54;21000;-82
2022/01/08 13:19:20;;;;;;;2.42;0.80;;;8.50;70.70;;;;;;2466586;55;20992;-82
2022/01/08 13:21:56;;;;;;;2.60;1.00;;;8.50;70.60;;;;;;2492226;54;20973;-83
2022/01/08 13:24:56;;;;;;;2.65;0.95;;;8.40;69.80;;;;;;2486734;54;20936;-83
2022/01/08 13:27:23;;;;;;;3.75;1.55;;;8.40;69.40;;;;;;2265939;55;20980;-83
2022/01/08 13:29:51;;;;;;;2.62;1.08;;;8.30;70.40;;;;;;2265047;56;21015;-83
2022/01/08 13:32:18;;;;;;;1.87;0.70;;;8.30;70.40;;;;;;2493169;55;21791;-83
2022/01/08 13:34:50;;;;;;;3.40;1.52;;;8.30;70.50;;;;;;2250788;55;20992;-83
2022/01/08 13:37:21;;;;;;;3.65;1.20;;;8.30;70.50;;;;;;2442601;55;20963;-83
2022/01/08 13:39:54;;;;;;;3.15;1.12;;;8.30;70.40;;;;;;2245630;56;20943;-83